ADDS METAR Data INFO
IDs: Format: Raw Decoded Include TAF

Data at: 0746 UTC 23 Jul 2018

KUSE 230745Z AUTO 00000KT 9SM BKN033 BKN042 16/16 A2985 RMK AO2
KUSE 230725Z AUTO 00000KT 10SM OVC032 17/17 A2986 RMK AO2
KUSE 230705Z AUTO 00000KT 10SM OVC033 17/17 A2985 RMK AO2
KUSE 230645Z AUTO 31003KT 10SM OVC033 17/17 A2986 RMK AO2
KUSE 230625Z AUTO 00000KT 10SM OVC033 17/17 A2986 RMK AO2
KUSE 230605Z AUTO 00000KT 10SM OVC033 17/17 A2987 RMK AO2
KUSE 230545Z AUTO 00000KT 10SM OVC033 17/17 A2987 RMK AO2
KUSE 230525Z AUTO 31003KT 10SM OVC033 17/17 A2987 RMK AO2
KUSE 230505Z AUTO 00000KT 10SM OVC033 17/17 A2988 RMK AO2
KUSE 230445Z AUTO 00000KT 10SM OVC035 17/17 A2988 RMK AO2
KUSE 230425Z AUTO 00000KT 10SM OVC035 17/17 A2988 RMK AO2
KUSE 230405Z AUTO 00000KT 10SM OVC036 17/17 A2988 RMK AO2
KUSE 230345Z AUTO 34003KT 10SM OVC036 17/17 A2989 RMK AO2
KUSE 230325Z AUTO 34003KT 10SM OVC034 17/17 A2989 RMK AO2
KUSE 230305Z AUTO 00000KT 10SM OVC031 17/17 A2989 RMK AO2
KUSE 230245Z AUTO 00000KT 10SM OVC032 17/17 A2988 RMK AO2
KUSE 230225Z AUTO 36005KT 10SM BKN032 18/17 A2988 RMK AO2
KUSE 230205Z AUTO 34005KT 10SM FEW055 18/16 A2988 RMK AO2
KUSE 230145Z AUTO 36008KT 10SM OVC050 19/16 A2987 RMK AO2
KUSE 230125Z AUTO 36006KT 10SM FEW044 OVC050 19/15 A2987 RMK AO2
KUSE 230105Z AUTO 02007KT 10SM OVC050 20/15 A2987 RMK AO2
KUSE 230045Z AUTO 02007KT 10SM OVC049 20/16 A2987 RMK AO2
KUSE 230025Z AUTO 04008KT 10SM BKN048 20/15 A2986 RMK AO2
KUSE 230005Z AUTO 05007KT 10SM OVC046 20/15 A2986 RMK AO2
KUSE 222345Z AUTO 04007G13KT 10SM OVC044 21/15 A2986 RMK AO2
KUSE 222325Z AUTO 06006KT 10SM SCT040 OVC046 21/17 A2985 RMK AO2
KUSE 222305Z AUTO 06007G12KT 10SM OVC046 21/17 A2984 RMK AO2
KUSE 222245Z AUTO 07008KT 10SM BKN048 22/17 A2984 RMK AO2
KUSE 222225Z AUTO 09007KT 10SM FEW031 FEW039 OVC047 21/18 A2984 RMK AO2
KUSE 222205Z AUTO 09009KT 10SM FEW031 BKN040 OVC046 22/18 A2984 RMK AO2
KUSE 222145Z AUTO 06005KT 10SM BKN030 OVC037 21/18 A2983 RMK AO2
KUSE 222125Z AUTO 05010KT 10SM BKN028 BKN035 21/17 A2983 RMK AO2
KUSE 222105Z AUTO 02008KT 10SM FEW029 23/18 A2984 RMK AO2
KUSE 222045Z AUTO 05008KT 10SM CLR 21/16 A2983 RMK AO2
KUSE 222025Z AUTO 06011KT 10SM SCT050 20/15 A2984 RMK AO2
KUSE 222005Z AUTO 06016KT 10SM FEW050 22/15 A2984 RMK AO2
KUSE 221945Z AUTO 04013G20KT 10SM CLR 23/16 A2983 RMK AO2
KUSE 221925Z AUTO 06011G19KT 10SM FEW080 FEW095 22/18 A2983 RMK AO2
KUSE 221905Z AUTO 06015KT 10SM FEW026 SCT075 SCT095 21/17 A2983 RMK AO2
KUSE 221845Z AUTO 05015KT 10SM FEW029 BKN044 BKN090 22/18 A2983 RMK AO2
KUSE 221825Z AUTO 05013G20KT 10SM BKN044 BKN095 22/18 A2983 RMK AO2
KUSE 221805Z AUTO 05015G20KT 10SM FEW029 FEW037 FEW044 23/19 A2983 RMK AO2
KUSE 221745Z AUTO 06014G20KT 10SM FEW030 SCT035 SCT041 23/19 A2982 RMK AO2
KUSE 221725Z AUTO 06015G21KT 10SM SCT028 BKN035 23/19 A2983 RMK AO2
KUSE 221705Z AUTO 06013KT 10SM CLR 23/21 A2982 RMK AO2
KUSE 221645Z AUTO 05014G19KT 10SM FEW019 SCT023 SCT031 23/22 A2981 RMK AO2
KUSE 221625Z AUTO 06011KT 10SM SCT020 BKN028 BKN033 23/22 A2981 RMK AO2
KUSE 221605Z AUTO 05014KT 10SM SCT022 BKN032 BKN039 23/22 A2981 RMK AO2
KUSE 221545Z AUTO 04011KT 10SM FEW021 SCT029 BKN110 23/22 A2981 RMK AO2
KUSE 221525Z AUTO 05010G16KT 10SM SCT021 BKN110 23/22 A2980 RMK AO2
KUSE 221505Z AUTO 04011G17KT 10SM SCT110 23/22 A2979 RMK AO2
KUSE 221445Z AUTO 04014KT 10SM FEW016 23/22 A2979 RMK AO2
KUSE 221425Z AUTO 05012KT 10SM FEW014 FEW019 FEW024 23/23 A2978 RMK AO2
KUSE 221405Z AUTO 05012KT 10SM BKN014 BKN022 23/22 A2979 RMK AO2
KUSE 221345Z AUTO 06012G18KT 10SM BKN014 BKN023 BKN085 23/23 A2978 RMK AO2
KUSE 221325Z AUTO 05011KT 10SM SCT013 SCT019 BKN024 22/22 A2978 RMK AO2
KUSE 221305Z AUTO 05009KT 10SM BKN019 BKN024 BKN085 22/22 A2978 RMK AO2
KUSE 221245Z AUTO 05009KT 9SM SCT008 SCT018 SCT033 22/22 A2977 RMK AO2
KUSE 221225Z AUTO 05010KT 7SM FEW008 BKN020 BKN033 21/21 A2977 RMK AO2
KUSE 221205Z AUTO 05006KT 3SM -RA FEW006 BKN021 BKN034 21/21 A2977 RMK AO2
KUSE 221145Z AUTO 05006KT 2SM BR FEW006 BKN023 OVC029 20/20 A2977 RMK AO2
KUSE 221125Z AUTO 03007KT 3SM BR BKN029 BKN037 OVC110 20/20 A2977 RMK AO2
KUSE 221105Z AUTO 03005KT 5SM BR SCT029 OVC037 20/20 A2976 RMK AO2
KUSE 221045Z AUTO 04004KT 7SM SCT023 OVC035 20/20 A2975 RMK AO2
KUSE 221025Z AUTO 03005KT 7SM SCT022 BKN036 OVC090 20/20 A2975 RMK AO2
KUSE 221005Z AUTO 04006KT 9SM FEW026 BKN034 OVC085 20/20 A2975 RMK AO2
KUSE 220945Z AUTO 03004KT 9SM FEW021 BKN029 OVC040 20/20 A2974 RMK AO2
KUSE 220925Z AUTO 04006KT 8SM OVC029 20/20 A2974 RMK AO2
KUSE 220905Z AUTO 04007KT 8SM FEW023 OVC032 20/20 A2974 RMK AO2
KUSE 220845Z AUTO 04008KT 7SM FEW014 BKN022 OVC033 20/20 A2973 RMK AO2
KUSE 220825Z AUTO 04006KT 7SM FEW014 SCT020 OVC026 20/20 A2974 RMK AO2
KUSE 220805Z AUTO 04004KT 9SM BKN027 OVC037 20/20 A2974 RMK AO2
KUSE 220745Z AUTO 05004KT 9SM BKN026 BKN031 OVC036 20/20 A2974 RMK AO2
KUSE 220725Z AUTO 03004KT 8SM SCT024 BKN036 OVC095 20/20 A2974 RMK AO2
KUSE 220705Z AUTO 04006KT 9SM BKN025 OVC100 20/20 A2974 RMK AO2
KUSE 220645Z AUTO 05009KT 7SM FEW017 BKN024 OVC095 20/20 A2975 RMK AO2
KUSE 220625Z AUTO 04008KT 7SM FEW020 FEW065 OVC095 20/20 A2975 RMK AO2
KUSE 220605Z AUTO 04007KT OVC090 20/20 A2975 RMK AO2
KUSE 220545Z AUTO 05008KT 6SM BR OVC090 20/20 A2975 RMK AO2
KUSE 220525Z AUTO 05007KT 7SM FEW055 BKN090 20/20 A2975 RMK AO2
KUSE 220505Z AUTO 04008KT 7SM FEW016 SCT036 BKN055 20/20 A2975 RMK AO2
KUSE 220445Z AUTO 04008KT 6SM BR FEW016 BKN031 OVC095 20/20 A2976 RMK AO2
KUSE 220425Z AUTO 05008KT 7SM FEW028 BKN036 BKN090 20/20 A2976 RMK AO2
KUSE 220405Z AUTO 04007KT 7SM FEW037 SCT048 BKN085 20/20 A2976 RMK AO2
KUSE 220345Z AUTO 04007KT 7SM SCT035 BKN044 OVC085 21/20 A2977 RMK AO2
KUSE 220325Z AUTO 04007KT 7SM BKN036 BKN044 OVC050 20/20 A2977 RMK AO2
KUSE 220305Z AUTO 04005KT 7SM BKN035 OVC045 21/20 A2977 RMK AO2
KUSE 220245Z AUTO 03004KT 6SM BR FEW025 FEW036 BKN046 21/21 A2977 RMK AO2
KUSE 220225Z AUTO 03004KT 6SM BR FEW045 SCT060 BKN095 20/20 A2976 RMK AO2
KUSE 220205Z AUTO 00000KT 7SM FEW021 SCT035 BKN060 21/21 A2976 RMK AO2
KUSE 220145Z AUTO 00000KT 8SM SCT019 BKN026 OVC034 21/21 A2976 RMK AO2
KUSE 220125Z AUTO 00000KT 7SM FEW018 BKN026 OVC050 21/21 A2975 RMK AO2
KUSE 220105Z AUTO 00000KT 5SM BR BKN023 BKN030 OVC055 21/21 A2975 RMK AO2
KUSE 220045Z AUTO 00000KT 4SM -RA FEW018 BKN024 OVC032 21/21 A2975 RMK AO2
KUSE 220025Z AUTO 00000KT 2 1/2SM -DZ SCT019 BKN025 OVC049 21/21 A2975 RMK AO2 VIS 1 3/4V5
KUSE 220005Z AUTO 00000KT 8SM BKN024 BKN032 OVC050 21/21 A2975 RMK AO2
KUSE 212345Z AUTO 21004KT 8SM -DZ FEW022 SCT037 OVC045 21/21 A2974 RMK AO2
KUSE 212325Z AUTO 19003KT 9SM FEW008 SCT015 BKN023 21/21 A2975 RMK AO2
KUSE 212305Z AUTO 17005KT 5SM -DZ BKN022 BKN031 OVC037 22/22 A2974 RMK AO2
KUSE 212245Z AUTO 04005KT 4SM -DZ FEW018 FEW025 BKN033 22/22 A2973 RMK AO2
KUSE 212225Z AUTO 06006KT 6SM BR SCT018 BKN029 OVC070 21/21 A2974 RMK AO2
KUSE 212205Z AUTO 07009KT 2SM -DZ SCT016 BKN028 OVC065 21/21 A2974 RMK AO2
KUSE 212145Z AUTO 04005KT 5SM -RA FEW018 SCT055 BKN065 22/22 A2973 RMK AO2
KUSE 212125Z AUTO 10008KT 1 1/2SM -DZ SCT018 BKN048 OVC070 22/21 A2974 RMK AO2
KUSE 212105Z AUTO 12008KT 9SM BKN047 OVC065 23/23 A2973 RMK AO2
KUSE 212045Z AUTO 11006G12KT 3SM BR BKN048 BKN060 22/22 A2973 RMK AO2
KUSE 212025Z AUTO 12009KT 10SM FEW019 SCT047 BKN060 23/23 A2973 RMK AO2
KUSE 212005Z AUTO 10009KT 10SM FEW017 FEW028 OVC075 24/24 A2973 RMK AO2